Newkirk, New Mexico
Current Conditions -  °F | °C
As of 2:53 AM on Tuesday 27 Jan 2015 (Local Time) from KTCC Reporting Station
Light Rain Light Rain  
Wind Chill: 31°   Ceiling: Unl
Heat Index: 36°   Visibility: 10mi
Dew Point: 30°   Wind: 6mph
Humidity: 79%   Direction: 270°W
Pressure: 30.25"   Gusts: NA
Location:  35.07°N, 104.27°W
Report Text: KTCC 270953Z AUTO 27005KT 10SM -RA CLR 02/M01 A3025 RMK AO2 SLP223 T00221011 PNO $
Loading
Personal Weather Stations






























Interactive Weather Map New forecast layout! Learn more

10-Day Weather Forecast

Advertisements
Track Severe Weather on mobile